sensor_id;sensor_type;location;lat;lon;timestamp;temperature;humidity
21666;DHT22;10994;45.486;9.190;2022-10-16T00:01:36;20.30;99.90
21666;DHT22;10994;45.486;9.190;2022-10-16T00:04:02;20.40;99.90
21666;DHT22;10994;45.486;9.190;2022-10-16T00:06:30;20.40;99.90
21666;DHT22;10994;45.486;9.190;2022-10-16T00:08:56;20.40;99.90
21666;DHT22;10994;45.486;9.190;2022-10-16T00:11:28;20.40;99.90
21666;DHT22;10994;45.486;9.190;2022-10-16T00:14:00;20.40;99.90
21666;DHT22;10994;45.486;9.190;2022-10-16T00:16:27;20.30;99.90
21666;DHT22;10994;45.486;9.190;2022-10-16T00:18:53;20.30;99.90
21666;DHT22;10994;45.486;9.190;2022-10-16T00:21:22;20.20;99.90
21666;DHT22;10994;45.486;9.190;2022-10-16T00:23:51;20.20;99.90
21666;DHT22;10994;45.486;9.190;2022-10-16T00:26:18;20.20;99.90
21666;DHT22;10994;45.486;9.190;2022-10-16T00:28:48;20.20;99.90
21666;DHT22;10994;45.486;9.190;2022-10-16T00:31:15;20.20;99.90
21666;DHT22;10994;45.486;9.190;2022-10-16T00:33:41;20.20;99.90
21666;DHT22;10994;45.486;9.190;2022-10-16T00:36:10;20.20;99.90
21666;DHT22;10994;45.486;9.190;2022-10-16T00:38:36;20.20;99.90
21666;DHT22;10994;45.486;9.190;2022-10-16T00:41:03;20.20;99.90
21666;DHT22;10994;45.486;9.190;2022-10-16T00:46:26;20.20;99.90
21666;DHT22;10994;45.486;9.190;2022-10-16T00:49:09;20.20;99.90
21666;DHT22;10994;45.486;9.190;2022-10-16T00:51:36;20.20;99.90
21666;DHT22;10994;45.486;9.190;2022-10-16T00:54:04;20.30;99.90
21666;DHT22;10994;45.486;9.190;2022-10-16T00:56:32;20.10;99.90
21666;DHT22;10994;45.486;9.190;2022-10-16T00:58:59;20.20;99.90
21666;DHT22;10994;45.486;9.190;2022-10-16T01:01:28;20.20;99.90
21666;DHT22;10994;45.486;9.190;2022-10-16T01:03:53;20.20;99.90
21666;DHT22;10994;45.486;9.190;2022-10-16T01:06:25;20.20;99.90
21666;DHT22;10994;45.486;9.190;2022-10-16T01:09:01;20.20;99.90
21666;DHT22;10994;45.486;9.190;2022-10-16T01:11:53;20.10;99.90
21666;DHT22;10994;45.486;9.190;2022-10-16T01:14:31;20.10;99.90
21666;DHT22;10994;45.486;9.190;2022-10-16T01:17:25;20.10;99.90
21666;DHT22;10994;45.486;9.190;2022-10-16T01:20:17;19.90;99.90
21666;DHT22;10994;45.486;9.190;2022-10-16T01:26:13;19.80;99.90
21666;DHT22;10994;45.486;9.190;2022-10-16T01:28:21;19.70;99.90
21666;DHT22;10994;45.486;9.190;2022-10-16T01:30:52;19.70;99.90
21666;DHT22;10994;45.486;9.190;2022-10-16T01:33:27;19.80;99.90
21666;DHT22;10994;45.486;9.190;2022-10-16T01:35:59;19.80;99.90
21666;DHT22;10994;45.486;9.190;2022-10-16T01:38:35;19.80;99.90
21666;DHT22;10994;45.486;9.190;2022-10-16T01:41:10;19.80;99.90
21666;DHT22;10994;45.486;9.190;2022-10-16T01:44:03;19.80;99.90
21666;DHT22;10994;45.486;9.190;2022-10-16T01:46:31;19.70;99.90
21666;DHT22;10994;45.486;9.190;2022-10-16T01:48:59;19.60;99.90
21666;DHT22;10994;45.486;9.190;2022-10-16T01:51:26;19.60;99.90
21666;DHT22;10994;45.486;9.190;2022-10-16T01:53:56;19.50;99.90
21666;DHT22;10994;45.486;9.190;2022-10-16T01:56:24;19.60;99.90
21666;DHT22;10994;45.486;9.190;2022-10-16T01:59:10;19.70;99.90
21666;DHT22;10994;45.486;9.190;2022-10-16T02:01:39;19.70;99.90
21666;DHT22;10994;45.486;9.190;2022-10-16T02:04:19;19.80;99.90
21666;DHT22;10994;45.486;9.190;2022-10-16T02:06:45;19.80;99.90
21666;DHT22;10994;45.486;9.190;2022-10-16T02:09:11;19.70;99.90
21666;DHT22;10994;45.486;9.190;2022-10-16T02:11:37;19.70;99.90
21666;DHT22;10994;45.486;9.190;2022-10-16T02:14:06;19.80;99.90
21666;DHT22;10994;45.486;9.190;2022-10-16T02:16:44;19.80;99.90
21666;DHT22;10994;45.486;9.190;2022-10-16T02:19:12;19.80;99.90
21666;DHT22;10994;45.486;9.190;2022-10-16T02:22:00;19.80;99.90
21666;DHT22;10994;45.486;9.190;2022-10-16T02:24:43;19.80;99.90
21666;DHT22;10994;45.486;9.190;2022-10-16T02:27:27;19.80;99.90
21666;DHT22;10994;45.486;9.190;2022-10-16T02:30:02;19.90;99.90
21666;DHT22;10994;45.486;9.190;2022-10-16T02:32:34;19.90;99.90
21666;DHT22;10994;45.486;9.190;2022-10-16T02:35:01;20.00;99.90
21666;DHT22;10994;45.486;9.190;2022-10-16T02:37:28;20.00;99.90
21666;DHT22;10994;45.486;9.190;2022-10-16T02:39:55;20.00;99.90
21666;DHT22;10994;45.486;9.190;2022-10-16T02:42:28;19.90;99.90
21666;DHT22;10994;45.486;9.190;2022-10-16T02:44:54;19.70;99.90
21666;DHT22;10994;45.486;9.190;2022-10-16T02:47:19;19.70;99.90
21666;DHT22;10994;45.486;9.190;2022-10-16T02:49:45;19.70;99.90
21666;DHT22;10994;45.486;9.190;2022-10-16T02:52:10;19.70;99.90
21666;DHT22;10994;45.486;9.190;2022-10-16T02:54:36;19.80;99.90
21666;DHT22;10994;45.486;9.190;2022-10-16T02:57:02;19.90;99.90
21666;DHT22;10994;45.486;9.190;2022-10-16T02:59:28;19.80;99.90
21666;DHT22;10994;45.486;9.190;2022-10-16T03:01:53;19.80;99.90
21666;DHT22;10994;45.486;9.190;2022-10-16T03:04:19;19.80;99.90
21666;DHT22;10994;45.486;9.190;2022-10-16T03:06:44;19.80;99.90
21666;DHT22;10994;45.486;9.190;2022-10-16T03:09:10;19.80;99.90
21666;DHT22;10994;45.486;9.190;2022-10-16T03:11:36;19.90;99.90
21666;DHT22;10994;45.486;9.190;2022-10-16T03:14:01;19.80;99.90
21666;DHT22;10994;45.486;9.190;2022-10-16T03:16:27;19.90;99.90
21666;DHT22;10994;45.486;9.190;2022-10-16T03:18:53;19.90;99.90
21666;DHT22;10994;45.486;9.190;2022-10-16T03:21:18;19.90;99.90
21666;DHT22;10994;45.486;9.190;2022-10-16T03:23:44;19.90;99.90
21666;DHT22;10994;45.486;9.190;2022-10-16T03:26:10;19.90;99.90
21666;DHT22;10994;45.486;9.190;2022-10-16T03:28:35;19.90;99.90
21666;DHT22;10994;45.486;9.190;2022-10-16T03:31:01;19.90;99.90
21666;DHT22;10994;45.486;9.190;2022-10-16T03:33:26;19.90;99.90
21666;DHT22;10994;45.486;9.190;2022-10-16T03:35:53;19.90;99.90
21666;DHT22;10994;45.486;9.190;2022-10-16T03:38:20;19.90;99.90
21666;DHT22;10994;45.486;9.190;2022-10-16T03:40:46;19.90;99.90
21666;DHT22;10994;45.486;9.190;2022-10-16T03:43:11;19.90;99.90
21666;DHT22;10994;45.486;9.190;2022-10-16T03:45:37;19.80;99.90
21666;DHT22;10994;45.486;9.190;2022-10-16T03:48:03;19.80;99.90
21666;DHT22;10994;45.486;9.190;2022-10-16T03:50:29;19.80;99.90
21666;DHT22;10994;45.486;9.190;2022-10-16T03:52:55;19.80;99.90
21666;DHT22;10994;45.486;9.190;2022-10-16T03:55:20;19.80;99.90
21666;DHT22;10994;45.486;9.190;2022-10-16T03:57:46;19.80;99.90
21666;DHT22;10994;45.486;9.190;2022-10-16T04:00:12;19.90;99.90
21666;DHT22;10994;45.486;9.190;2022-10-16T04:02:38;19.90;99.90
21666;DHT22;10994;45.486;9.190;2022-10-16T04:05:05;19.90;99.90
21666;DHT22;10994;45.486;9.190;2022-10-16T04:07:30;19.90;99.90
21666;DHT22;10994;45.486;9.190;2022-10-16T04:09:56;19.90;99.90
21666;DHT22;10994;45.486;9.190;2022-10-16T04:12:24;19.90;99.90
21666;DHT22;10994;45.486;9.190;2022-10-16T04:14:50;19.90;99.90
21666;DHT22;10994;45.486;9.190;2022-10-16T04:17:16;19.90;99.90
21666;DHT22;10994;45.486;9.190;2022-10-16T04:19:41;19.90;99.90
21666;DHT22;10994;45.486;9.190;2022-10-16T04:22:07;19.90;99.90
21666;DHT22;10994;45.486;9.190;2022-10-16T04:24:33;19.90;99.90
21666;DHT22;10994;45.486;9.190;2022-10-16T04:26:59;19.80;99.90
21666;DHT22;10994;45.486;9.190;2022-10-16T04:29:24;19.80;99.90
21666;DHT22;10994;45.486;9.190;2022-10-16T04:31:50;19.80;99.90
21666;DHT22;10994;45.486;9.190;2022-10-16T04:34:16;19.80;99.90
21666;DHT22;10994;45.486;9.190;2022-10-16T04:36:41;19.70;99.90
21666;DHT22;10994;45.486;9.190;2022-10-16T04:39:07;19.70;99.90
21666;DHT22;10994;45.486;9.190;2022-10-16T04:41:33;19.70;99.90
21666;DHT22;10994;45.486;9.190;2022-10-16T04:43:58;19.70;99.90
21666;DHT22;10994;45.486;9.190;2022-10-16T04:46:24;19.80;99.90
21666;DHT22;10994;45.486;9.190;2022-10-16T04:48:49;19.80;99.90
21666;DHT22;10994;45.486;9.190;2022-10-16T04:51:15;19.70;99.90
21666;DHT22;10994;45.486;9.190;2022-10-16T04:53:41;19.70;99.90
21666;DHT22;10994;45.486;9.190;2022-10-16T04:56:06;19.70;99.90
21666;DHT22;10994;45.486;9.190;2022-10-16T04:58:32;19.70;99.90
21666;DHT22;10994;45.486;9.190;2022-10-16T05:00:58;19.70;99.90
21666;DHT22;10994;45.486;9.190;2022-10-16T05:03:24;19.70;99.90
21666;DHT22;10994;45.486;9.190;2022-10-16T05:05:49;19.70;99.90
21666;DHT22;10994;45.486;9.190;2022-10-16T05:08:16;19.70;99.90
21666;DHT22;10994;45.486;9.190;2022-10-16T05:10:42;19.70;99.90
21666;DHT22;10994;45.486;9.190;2022-10-16T05:13:08;19.70;99.90
21666;DHT22;10994;45.486;9.190;2022-10-16T05:15:34;19.70;99.90
21666;DHT22;10994;45.486;9.190;2022-10-16T05:18:00;19.80;99.90
21666;DHT22;10994;45.486;9.190;2022-10-16T05:20:26;19.80;99.90
21666;DHT22;10994;45.486;9.190;2022-10-16T05:22:51;19.80;99.90
21666;DHT22;10994;45.486;9.190;2022-10-16T05:25:17;19.70;99.90
21666;DHT22;10994;45.486;9.190;2022-10-16T05:27:43;19.80;99.90
21666;DHT22;10994;45.486;9.190;2022-10-16T05:30:12;19.70;99.90
21666;DHT22;10994;45.486;9.190;2022-10-16T05:32:37;19.70;99.90
21666;DHT22;10994;45.486;9.190;2022-10-16T05:35:03;19.70;99.90
21666;DHT22;10994;45.486;9.190;2022-10-16T05:37:29;19.80;99.90
21666;DHT22;10994;45.486;9.190;2022-10-16T05:39:55;19.80;99.90
21666;DHT22;10994;45.486;9.190;2022-10-16T05:42:21;19.70;99.90
21666;DHT22;10994;45.486;9.190;2022-10-16T05:44:46;19.70;99.90
21666;DHT22;10994;45.486;9.190;2022-10-16T05:47:13;19.70;99.90
21666;DHT22;10994;45.486;9.190;2022-10-16T05:49:39;19.60;99.90
21666;DHT22;10994;45.486;9.190;2022-10-16T05:52:05;19.60;99.90
21666;DHT22;10994;45.486;9.190;2022-10-16T05:54:31;19.70;99.90
21666;DHT22;10994;45.486;9.190;2022-10-16T05:56:57;19.70;99.90
21666;DHT22;10994;45.486;9.190;2022-10-16T05:59:23;19.60;99.90
21666;DHT22;10994;45.486;9.190;2022-10-16T06:01:48;19.60;99.90
21666;DHT22;10994;45.486;9.190;2022-10-16T06:04:14;19.60;99.90
21666;DHT22;10994;45.486;9.190;2022-10-16T06:06:40;19.60;99.90
21666;DHT22;10994;45.486;9.190;2022-10-16T06:09:06;19.60;99.90
21666;DHT22;10994;45.486;9.190;2022-10-16T06:11:32;19.70;99.90
21666;DHT22;10994;45.486;9.190;2022-10-16T06:14:00;19.60;99.90
21666;DHT22;10994;45.486;9.190;2022-10-16T06:16:28;19.60;99.90
21666;DHT22;10994;45.486;9.190;2022-10-16T06:18:55;19.60;99.90
21666;DHT22;10994;45.486;9.190;2022-10-16T06:21:23;19.70;99.90
21666;DHT22;10994;45.486;9.190;2022-10-16T06:23:50;19.70;99.90
21666;DHT22;10994;45.486;9.190;2022-10-16T06:26:19;19.70;99.90
21666;DHT22;10994;45.486;9.190;2022-10-16T06:28:45;19.60;99.90
21666;DHT22;10994;45.486;9.190;2022-10-16T06:31:11;19.70;99.90
21666;DHT22;10994;45.486;9.190;2022-10-16T06:33:38;19.70;99.90
21666;DHT22;10994;45.486;9.190;2022-10-16T06:36:09;19.70;99.90
21666;DHT22;10994;45.486;9.190;2022-10-16T06:38:36;19.70;99.90
21666;DHT22;10994;45.486;9.190;2022-10-16T06:41:02;19.80;99.90
21666;DHT22;10994;45.486;9.190;2022-10-16T06:43:31;19.70;99.90
21666;DHT22;10994;45.486;9.190;2022-10-16T06:45:59;19.70;99.90
21666;DHT22;10994;45.486;9.190;2022-10-16T06:48:25;19.70;99.90
21666;DHT22;10994;45.486;9.190;2022-10-16T06:53:38;19.70;99.90
21666;DHT22;10994;45.486;9.190;2022-10-16T06:58:40;19.70;99.90
21666;DHT22;10994;45.486;9.190;2022-10-16T07:01:07;19.70;99.90
21666;DHT22;10994;45.486;9.190;2022-10-16T07:03:35;19.70;99.90
21666;DHT22;10994;45.486;9.190;2022-10-16T07:06:03;19.70;99.90
21666;DHT22;10994;45.486;9.190;2022-10-16T07:08:32;19.80;99.90
21666;DHT22;10994;45.486;9.190;2022-10-16T07:10:59;19.80;99.90
21666;DHT22;10994;45.486;9.190;2022-10-16T07:13:25;19.80;99.90
21666;DHT22;10994;45.486;9.190;2022-10-16T07:15:51;19.80;99.90
21666;DHT22;10994;45.486;9.190;2022-10-16T07:18:16;19.90;99.90
21666;DHT22;10994;45.486;9.190;2022-10-16T07:20:42;19.90;99.90
21666;DHT22;10994;45.486;9.190;2022-10-16T07:23:08;19.90;99.90
21666;DHT22;10994;45.486;9.190;2022-10-16T07:25:34;19.90;99.90
21666;DHT22;10994;45.486;9.190;2022-10-16T07:27:59;19.90;99.90
21666;DHT22;10994;45.486;9.190;2022-10-16T07:30:25;19.90;99.90
21666;DHT22;10994;45.486;9.190;2022-10-16T07:32:51;19.90;99.90
21666;DHT22;10994;45.486;9.190;2022-10-16T07:35:17;20.00;99.90
21666;DHT22;10994;45.486;9.190;2022-10-16T07:37:46;20.00;99.90
21666;DHT22;10994;45.486;9.190;2022-10-16T07:40:12;20.00;99.90
21666;DHT22;10994;45.486;9.190;2022-10-16T07:42:38;20.10;99.90
21666;DHT22;10994;45.486;9.190;2022-10-16T07:45:04;20.10;99.90
21666;DHT22;10994;45.486;9.190;2022-10-16T07:47:30;20.10;99.90
21666;DHT22;10994;45.486;9.190;2022-10-16T07:49:56;20.10;99.90
21666;DHT22;10994;45.486;9.190;2022-10-16T07:52:21;20.20;99.90
21666;DHT22;10994;45.486;9.190;2022-10-16T07:54:47;20.20;99.90
21666;DHT22;10994;45.486;9.190;2022-10-16T07:57:13;20.10;99.90
21666;DHT22;10994;45.486;9.190;2022-10-16T07:59:45;20.20;99.90
21666;DHT22;10994;45.486;9.190;2022-10-16T08:02:11;20.20;99.90
21666;DHT22;10994;45.486;9.190;2022-10-16T08:04:38;20.20;99.90
21666;DHT22;10994;45.486;9.190;2022-10-16T08:07:03;20.20;99.90
21666;DHT22;10994;45.486;9.190;2022-10-16T08:09:29;20.20;99.90
21666;DHT22;10994;45.486;9.190;2022-10-16T08:11:55;20.30;99.90
21666;DHT22;10994;45.486;9.190;2022-10-16T08:14:20;20.30;99.90
21666;DHT22;10994;45.486;9.190;2022-10-16T08:16:46;20.30;99.90
21666;DHT22;10994;45.486;9.190;2022-10-16T08:19:12;20.30;99.90
21666;DHT22;10994;45.486;9.190;2022-10-16T08:21:37;20.30;99.90
21666;DHT22;10994;45.486;9.190;2022-10-16T08:24:03;20.30;99.90
21666;DHT22;10994;45.486;9.190;2022-10-16T08:26:29;20.30;99.90
21666;DHT22;10994;45.486;9.190;2022-10-16T08:28:55;20.30;99.90
21666;DHT22;10994;45.486;9.190;2022-10-16T08:31:22;20.30;99.90
21666;DHT22;10994;45.486;9.190;2022-10-16T08:33:48;20.30;99.90
21666;DHT22;10994;45.486;9.190;2022-10-16T08:36:15;20.40;99.90
21666;DHT22;10994;45.486;9.190;2022-10-16T08:38:41;20.40;99.90
21666;DHT22;10994;45.486;9.190;2022-10-16T08:41:30;20.40;99.90
21666;DHT22;10994;45.486;9.190;2022-10-16T08:47:01;20.50;99.90
21666;DHT22;10994;45.486;9.190;2022-10-16T08:49:28;20.50;99.90
21666;DHT22;10994;45.486;9.190;2022-10-16T08:51:55;20.60;99.90
21666;DHT22;10994;45.486;9.190;2022-10-16T08:54:37;20.50;99.90
21666;DHT22;10994;45.486;9.190;2022-10-16T08:57:20;20.40;99.90
21666;DHT22;10994;45.486;9.190;2022-10-16T08:59:46;20.30;99.90
21666;DHT22;10994;45.486;9.190;2022-10-16T09:02:35;20.20;99.90
21666;DHT22;10994;45.486;9.190;2022-10-16T09:05:08;20.20;99.90
21666;DHT22;10994;45.486;9.190;2022-10-16T09:08:03;20.20;99.90
21666;DHT22;10994;45.486;9.190;2022-10-16T09:13:24;20.30;99.90
21666;DHT22;10994;45.486;9.190;2022-10-16T09:21:24;20.10;99.90
21666;DHT22;10994;45.486;9.190;2022-10-16T09:23:51;20.20;99.90
21666;DHT22;10994;45.486;9.190;2022-10-16T09:26:17;20.20;99.90
21666;DHT22;10994;45.486;9.190;2022-10-16T09:28:45;20.20;99.90
21666;DHT22;10994;45.486;9.190;2022-10-16T09:31:17;20.20;99.90
21666;DHT22;10994;45.486;9.190;2022-10-16T09:33:45;20.20;99.90
21666;DHT22;10994;45.486;9.190;2022-10-16T09:36:13;20.30;99.90
21666;DHT22;10994;45.486;9.190;2022-10-16T09:38:39;20.40;99.90
21666;DHT22;10994;45.486;9.190;2022-10-16T09:41:18;20.50;99.90
21666;DHT22;10994;45.486;9.190;2022-10-16T09:44:00;20.50;99.90
21666;DHT22;10994;45.486;9.190;2022-10-16T09:46:30;20.50;99.90
21666;DHT22;10994;45.486;9.190;2022-10-16T09:48:59;20.50;99.90
21666;DHT22;10994;45.486;9.190;2022-10-16T09:51:35;20.60;99.90
21666;DHT22;10994;45.486;9.190;2022-10-16T09:54:13;20.60;99.90
21666;DHT22;10994;45.486;9.190;2022-10-16T09:56:39;20.50;99.90
21666;DHT22;10994;45.486;9.190;2022-10-16T09:59:14;20.60;99.90
21666;DHT22;10994;45.486;9.190;2022-10-16T10:04:13;20.70;99.90
21666;DHT22;10994;45.486;9.190;2022-10-16T10:06:47;20.70;99.90
21666;DHT22;10994;45.486;9.190;2022-10-16T10:09:24;20.70;99.90
21666;DHT22;10994;45.486;9.190;2022-10-16T10:11:55;20.80;99.90
21666;DHT22;10994;45.486;9.190;2022-10-16T10:14:43;20.70;99.90
21666;DHT22;10994;45.486;9.190;2022-10-16T10:28:06;21.00;99.90
21666;DHT22;10994;45.486;9.190;2022-10-16T10:36:35;21.10;99.90
21666;DHT22;10994;45.486;9.190;2022-10-16T10:52:58;21.30;99.90
21666;DHT22;10994;45.486;9.190;2022-10-16T11:01:16;21.60;99.90
21666;DHT22;10994;45.486;9.190;2022-10-16T11:06:44;21.60;99.90
21666;DHT22;10994;45.486;9.190;2022-10-16T11:11:45;21.80;99.90
21666;DHT22;10994;45.486;9.190;2022-10-16T11:14:26;21.90;99.90
21666;DHT22;10994;45.486;9.190;2022-10-16T11:17:13;21.90;99.90
21666;DHT22;10994;45.486;9.190;2022-10-16T11:19:51;21.90;99.90
21666;DHT22;10994;45.486;9.190;2022-10-16T11:22:30;22.00;99.90
21666;DHT22;10994;45.486;9.190;2022-10-16T11:25:13;22.00;99.90
21666;DHT22;10994;45.486;9.190;2022-10-16T11:30:27;22.10;99.90
21666;DHT22;10994;45.486;9.190;2022-10-16T11:38:43;22.10;99.90
21666;DHT22;10994;45.486;9.190;2022-10-16T11:46:36;22.50;99.90
21666;DHT22;10994;45.486;9.190;2022-10-16T11:49:13;22.50;99.90
21666;DHT22;10994;45.486;9.190;2022-10-16T11:51:43;22.60;99.90
21666;DHT22;10994;45.486;9.190;2022-10-16T11:54:26;22.70;99.90
21666;DHT22;10994;45.486;9.190;2022-10-16T11:56:57;22.70;99.90
21666;DHT22;10994;45.486;9.190;2022-10-16T11:59:42;22.80;99.90
21666;DHT22;10994;45.486;9.190;2022-10-16T12:05:14;22.90;99.90
21666;DHT22;10994;45.486;9.190;2022-10-16T12:10:33;23.30;99.90
21666;DHT22;10994;45.486;9.190;2022-10-16T12:13:32;23.70;99.90
21666;DHT22;10994;45.486;9.190;2022-10-16T12:16:24;24.10;99.90
21666;DHT22;10994;45.486;9.190;2022-10-16T12:19:10;24.70;99.90
21666;DHT22;10994;45.486;9.190;2022-10-16T12:21:36;25.10;99.90
21666;DHT22;10994;45.486;9.190;2022-10-16T12:24:03;25.20;99.90
21666;DHT22;10994;45.486;9.190;2022-10-16T12:26:33;25.10;99.90
21666;DHT22;10994;45.486;9.190;2022-10-16T12:32:30;25.10;99.90
21666;DHT22;10994;45.486;9.190;2022-10-16T12:34:57;25.00;99.90
21666;DHT22;10994;45.486;9.190;2022-10-16T12:39:52;24.60;99.90
21666;DHT22;10994;45.486;9.190;2022-10-16T12:44:54;24.20;99.90
21666;DHT22;10994;45.486;9.190;2022-10-16T12:49:56;23.80;99.90
21666;DHT22;10994;45.486;9.190;2022-10-16T12:52:48;23.70;99.90
21666;DHT22;10994;45.486;9.190;2022-10-16T12:55:19;23.60;99.90
21666;DHT22;10994;45.486;9.190;2022-10-16T12:58:11;23.60;99.90
21666;DHT22;10994;45.486;9.190;2022-10-16T13:00:44;23.60;99.90
21666;DHT22;10994;45.486;9.190;2022-10-16T13:04:00;23.70;99.90
21666;DHT22;10994;45.486;9.190;2022-10-16T13:09:30;23.50;99.90
21666;DHT22;10994;45.486;9.190;2022-10-16T13:12:07;23.30;99.90
21666;DHT22;10994;45.486;9.190;2022-10-16T13:23:24;22.90;99.90
21666;DHT22;10994;45.486;9.190;2022-10-16T13:28:38;23.10;99.90
21666;DHT22;10994;45.486;9.190;2022-10-16T13:31:05;23.30;99.90
21666;DHT22;10994;45.486;9.190;2022-10-16T13:33:38;23.30;99.90
21666;DHT22;10994;45.486;9.190;2022-10-16T13:36:05;23.40;99.90
21666;DHT22;10994;45.486;9.190;2022-10-16T13:38:35;23.40;99.90
21666;DHT22;10994;45.486;9.190;2022-10-16T13:41:20;23.40;99.90
21666;DHT22;10994;45.486;9.190;2022-10-16T13:43:51;23.40;99.90
21666;DHT22;10994;45.486;9.190;2022-10-16T13:46:21;23.40;99.90
21666;DHT22;10994;45.486;9.190;2022-10-16T13:49:01;23.40;99.90
21666;DHT22;10994;45.486;9.190;2022-10-16T13:51:28;23.50;99.90
21666;DHT22;10994;45.486;9.190;2022-10-16T13:53:56;23.50;99.90
21666;DHT22;10994;45.486;9.190;2022-10-16T13:56:25;23.60;99.90
21666;DHT22;10994;45.486;9.190;2022-10-16T13:59:03;23.60;99.90
21666;DHT22;10994;45.486;9.190;2022-10-16T14:01:33;23.60;99.90
21666;DHT22;10994;45.486;9.190;2022-10-16T14:04:05;23.70;99.90
21666;DHT22;10994;45.486;9.190;2022-10-16T14:06:35;23.70;99.90
21666;DHT22;10994;45.486;9.190;2022-10-16T14:09:13;23.60;99.90
21666;DHT22;10994;45.486;9.190;2022-10-16T14:11:49;23.50;99.90
21666;DHT22;10994;45.486;9.190;2022-10-16T14:14:18;23.50;99.90
21666;DHT22;10994;45.486;9.190;2022-10-16T14:16:44;23.30;99.90
21666;DHT22;10994;45.486;9.190;2022-10-16T14:19:24;23.20;99.90
21666;DHT22;10994;45.486;9.190;2022-10-16T14:21:51;23.20;99.90
21666;DHT22;10994;45.486;9.190;2022-10-16T14:24:32;23.10;99.90
21666;DHT22;10994;45.486;9.190;2022-10-16T14:26:59;23.10;99.90
21666;DHT22;10994;45.486;9.190;2022-10-16T14:29:27;23.20;99.90
21666;DHT22;10994;45.486;9.190;2022-10-16T14:34:32;23.10;99.90
21666;DHT22;10994;45.486;9.190;2022-10-16T14:37:01;23.20;99.90
21666;DHT22;10994;45.486;9.190;2022-10-16T14:39:32;23.30;99.90
21666;DHT22;10994;45.486;9.190;2022-10-16T14:41:59;23.30;99.90
21666;DHT22;10994;45.486;9.190;2022-10-16T14:44:31;23.30;99.90
21666;DHT22;10994;45.486;9.190;2022-10-16T14:46:58;23.20;99.90
21666;DHT22;10994;45.486;9.190;2022-10-16T14:49:31;23.10;99.90
21666;DHT22;10994;45.486;9.190;2022-10-16T14:51:57;23.10;99.90
21666;DHT22;10994;45.486;9.190;2022-10-16T14:54:23;23.00;99.90
21666;DHT22;10994;45.486;9.190;2022-10-16T14:56:54;23.10;99.90
21666;DHT22;10994;45.486;9.190;2022-10-16T15:01:55;23.20;99.90
21666;DHT22;10994;45.486;9.190;2022-10-16T15:04:23;23.30;99.90
21666;DHT22;10994;45.486;9.190;2022-10-16T15:06:49;23.30;99.90
21666;DHT22;10994;45.486;9.190;2022-10-16T15:09:14;23.30;99.90
21666;DHT22;10994;45.486;9.190;2022-10-16T15:11:41;23.20;99.90
21666;DHT22;10994;45.486;9.190;2022-10-16T15:14:11;23.10;99.90
21666;DHT22;10994;45.486;9.190;2022-10-16T15:16:39;23.10;99.90
21666;DHT22;10994;45.486;9.190;2022-10-16T15:19:05;23.10;99.90
21666;DHT22;10994;45.486;9.190;2022-10-16T15:21:32;23.10;99.90
21666;DHT22;10994;45.486;9.190;2022-10-16T15:23:59;23.10;99.90
21666;DHT22;10994;45.486;9.190;2022-10-16T15:26:29;23.10;99.90
21666;DHT22;10994;45.486;9.190;2022-10-16T15:28:56;23.10;99.90
21666;DHT22;10994;45.486;9.190;2022-10-16T15:31:24;23.00;99.90
21666;DHT22;10994;45.486;9.190;2022-10-16T15:33:58;23.00;99.90
21666;DHT22;10994;45.486;9.190;2022-10-16T15:40:20;22.90;99.90
21666;DHT22;10994;45.486;9.190;2022-10-16T15:42:46;23.00;99.90
21666;DHT22;10994;45.486;9.190;2022-10-16T15:45:13;22.90;99.90
21666;DHT22;10994;45.486;9.190;2022-10-16T15:47:49;22.90;99.90
21666;DHT22;10994;45.486;9.190;2022-10-16T15:50:21;22.90;99.90
21666;DHT22;10994;45.486;9.190;2022-10-16T15:52:46;22.90;99.90
21666;DHT22;10994;45.486;9.190;2022-10-16T15:55:15;22.90;99.90
21666;DHT22;10994;45.486;9.190;2022-10-16T15:57:41;22.90;99.90
21666;DHT22;10994;45.486;9.190;2022-10-16T16:00:14;22.90;99.90
21666;DHT22;10994;45.486;9.190;2022-10-16T16:02:41;22.80;99.90
21666;DHT22;10994;45.486;9.190;2022-10-16T16:05:08;22.80;99.90
21666;DHT22;10994;45.486;9.190;2022-10-16T16:07:35;22.70;99.90
21666;DHT22;10994;45.486;9.190;2022-10-16T16:10:04;22.70;99.90
21666;DHT22;10994;45.486;9.190;2022-10-16T16:12:30;22.70;99.90
21666;DHT22;10994;45.486;9.190;2022-10-16T16:14:56;22.70;99.90
21666;DHT22;10994;45.486;9.190;2022-10-16T16:17:27;22.60;99.90
21666;DHT22;10994;45.486;9.190;2022-10-16T16:19:53;22.60;99.90
21666;DHT22;10994;45.486;9.190;2022-10-16T16:22:19;22.50;99.90
21666;DHT22;10994;45.486;9.190;2022-10-16T16:24:44;22.50;99.90
21666;DHT22;10994;45.486;9.190;2022-10-16T16:27:10;22.50;99.90
21666;DHT22;10994;45.486;9.190;2022-10-16T16:29:39;22.50;99.90
21666;DHT22;10994;45.486;9.190;2022-10-16T16:32:05;22.50;99.90
21666;DHT22;10994;45.486;9.190;2022-10-16T16:34:31;22.50;99.90
21666;DHT22;10994;45.486;9.190;2022-10-16T16:37:00;22.50;99.90
21666;DHT22;10994;45.486;9.190;2022-10-16T16:39:26;22.40;99.90
21666;DHT22;10994;45.486;9.190;2022-10-16T16:42:02;22.40;99.90
21666;DHT22;10994;45.486;9.190;2022-10-16T16:44:32;22.40;99.90
21666;DHT22;10994;45.486;9.190;2022-10-16T16:47:08;22.40;99.90
21666;DHT22;10994;45.486;9.190;2022-10-16T16:49:40;22.40;99.90
21666;DHT22;10994;45.486;9.190;2022-10-16T16:52:07;22.40;99.90
21666;DHT22;10994;45.486;9.190;2022-10-16T16:54:32;22.30;99.90
21666;DHT22;10994;45.486;9.190;2022-10-16T16:57:20;22.40;99.90
21666;DHT22;10994;45.486;9.190;2022-10-16T16:59:46;22.40;99.90
21666;DHT22;10994;45.486;9.190;2022-10-16T17:02:14;22.40;99.90
21666;DHT22;10994;45.486;9.190;2022-10-16T17:04:40;22.40;99.90
21666;DHT22;10994;45.486;9.190;2022-10-16T17:07:06;22.40;99.90
21666;DHT22;10994;45.486;9.190;2022-10-16T17:09:32;22.40;99.90
21666;DHT22;10994;45.486;9.190;2022-10-16T17:11:58;22.40;99.90
21666;DHT22;10994;45.486;9.190;2022-10-16T17:14:24;22.30;99.90
21666;DHT22;10994;45.486;9.190;2022-10-16T17:16:49;22.30;99.90
21666;DHT22;10994;45.486;9.190;2022-10-16T17:19:18;22.30;99.90
21666;DHT22;10994;45.486;9.190;2022-10-16T17:21:44;22.30;99.90
21666;DHT22;10994;45.486;9.190;2022-10-16T17:24:10;22.30;99.90
21666;DHT22;10994;45.486;9.190;2022-10-16T17:26:37;22.20;99.90
21666;DHT22;10994;45.486;9.190;2022-10-16T17:29:04;22.20;99.90
21666;DHT22;10994;45.486;9.190;2022-10-16T17:31:32;22.20;99.90
21666;DHT22;10994;45.486;9.190;2022-10-16T17:34:00;22.20;99.90
21666;DHT22;10994;45.486;9.190;2022-10-16T17:36:26;22.20;99.90
21666;DHT22;10994;45.486;9.190;2022-10-16T17:38:58;22.20;99.90
21666;DHT22;10994;45.486;9.190;2022-10-16T17:41:26;22.20;99.90
21666;DHT22;10994;45.486;9.190;2022-10-16T17:43:52;22.20;99.90
21666;DHT22;10994;45.486;9.190;2022-10-16T17:46:19;22.20;99.90